ADDS TAF Data INFO
IDs: Format: Raw Decoded Include METARs

Data at: 0945 UTC 25 Jun 2018

KTPA 250903Z 2509/2612 VRB03KT P6SM SCT100 BKN200
  FM251400 16006KT P6SM SCT025 SCT250
  FM251800 24007KT P6SM VCTS SCT030CB BKN100
  TEMPO 2519/2523 VRB10G20KT 3SM TSRA BKN025CB OVC100
  FM252300 29006KT P6SM VCTS SCT030CB OVC100
  FM260200 VRB04KT P6SM FEW040 BKN100